Time;durP1;ratioP1;P1;durP2;ratioP2;P2;SDS_P1;SDS_P2;PMS_P1;PMS_P2;Temp;Humidity;BMP_temperature;BMP_pressure;BME280_temperature;BME280_humidity;BME280_pressure;Samples;Min_cycle;Max_cycle;Signal;HPM_P1;HPM_P2
2024/04/25 00:01:54;;;;;;;15.90;10.50;;;;;;;6.79;86.81;99446.54;105126;1271;104000;-85
2024/04/25 00:04:40;;;;;;;17.10;10.70;;;;;;;6.77;86.76;99448.93;105131;1275;100394;-83
2024/04/25 00:07:25;;;;;;;14.50;10.40;;;;;;;6.75;87.02;99449.06;105116;1273;99390;-84
2024/04/25 00:10:11;;;;;;;14.90;11.10;;;;;;;6.74;87.23;99448.41;105146;1269;99296;-82
2024/04/25 00:12:57;;;;;;;14.50;10.90;;;;;;;6.74;87.12;99449.47;105500;1270;99925;-83
2024/04/25 00:15:43;;;;;;;15.50;11.00;;;;;;;6.75;87.36;99454.19;105487;1273;102870;-82
2024/04/25 00:18:29;;;;;;;14.40;10.70;;;;;;;6.76;87.46;99456.23;105221;1270;99154;-83
2024/04/25 00:21:15;;;;;;;13.70;9.80;;;;;;;6.76;87.51;99454.16;105123;1274;99333;-84
2024/04/25 00:24:01;;;;;;;15.50;10.50;;;;;;;6.76;87.34;99454.36;105018;1270;99333;-83
2024/04/25 00:26:48;;;;;;;14.60;10.70;;;;;;;6.77;87.23;99458.59;105015;1270;99846;-84
2024/04/25 00:29:34;;;;;;;18.30;12.00;;;;;;;6.76;87.38;99459.20;105171;1271;102947;-83
2024/04/25 00:32:19;;;;;;;14.40;10.90;;;;;;;6.75;87.31;99459.43;105221;1273;99371;-83
2024/04/25 00:35:05;;;;;;;15.80;11.30;;;;;;;6.76;87.52;99468.24;105399;1273;99342;-83
2024/04/25 00:37:51;;;;;;;16.80;11.40;;;;;;;6.76;87.54;99466.98;105277;1273;99270;-83
2024/04/25 00:40:36;;;;;;;16.60;11.10;;;;;;;6.76;87.51;99466.80;105086;1273;102309;-82
2024/04/25 00:43:30;;;;;;;15.80;11.50;;;;;;;6.76;87.38;99466.36;105169;1269;102962;-82
2024/04/25 00:46:18;;;;;;;15.20;11.30;;;;;;;6.73;87.54;99465.55;105191;1271;100584;-83
2024/04/25 00:49:05;;;;;;;16.80;12.00;;;;;;;6.73;87.66;99466.90;105005;1270;99402;-82
2024/04/25 00:51:50;;;;;;;15.30;12.00;;;;;;;6.72;87.86;99468.77;105080;1270;99366;-82
2024/04/25 00:54:37;;;;;;;19.00;13.90;;;;;;;6.71;87.99;99467.66;105197;1269;99447;-82
2024/04/25 00:57:24;;;;;;;21.00;14.60;;;;;;;6.68;87.99;99469.92;105285;1269;102911;-83
2024/04/25 01:00:13;;;;;;;19.80;13.80;;;;;;;6.65;88.23;99470.34;105594;1273;99222;-84
2024/04/25 01:03:01;;;;;;;15.90;11.70;;;;;;;6.64;87.99;99469.80;105606;1271;99265;-84
2024/04/25 01:05:48;;;;;;;16.90;12.40;;;;;;;6.62;87.95;99470.52;105384;1272;99343;-83
2024/04/25 01:08:34;;;;;;;18.80;14.60;;;;;;;6.60;88.26;99470.40;105107;1270;99928;-82
2024/04/25 01:11:20;;;;;;;17.00;12.40;;;;;;;6.58;88.34;99467.68;105351;1271;103911;-83
2024/04/25 01:14:05;;;;;;;18.50;12.80;;;;;;;6.58;88.45;99467.14;105349;1268;100524;-83
2024/04/25 01:16:51;;;;;;;17.30;11.70;;;;;;;6.58;88.41;99465.89;105271;1270;99334;-83
2024/04/25 01:19:36;;;;;;;17.00;12.50;;;;;;;6.58;88.21;99463.84;105271;1276;99484;-82
2024/04/25 01:22:33;;;;;;;18.70;11.90;;;;;;;6.55;88.30;99464.05;105292;1270;99230;-83
2024/04/25 01:25:19;;;;;;;16.40;12.20;;;;;;;6.53;88.70;99462.84;105579;1270;102693;-84
2024/04/25 01:28:05;;;;;;;18.70;12.70;;;;;;;6.52;88.71;99462.98;105202;1273;99368;-84
2024/04/25 01:30:52;;;;;;;18.10;12.60;;;;;;;6.50;88.74;99457.48;105197;1272;99487;-83
2024/04/25 01:33:39;;;;;;;19.70;14.10;;;;;;;6.48;88.54;99456.33;105289;1270;99250;-84
2024/04/25 01:36:25;;;;;;;16.90;12.50;;;;;;;6.47;88.52;99455.04;105279;1270;99376;-84
2024/04/25 01:39:11;;;;;;;20.20;13.30;;;;;;;6.46;88.66;99454.33;105253;1270;104902;-84
2024/04/25 01:41:57;;;;;;;19.80;13.90;;;;;;;6.43;88.95;99454.63;105220;1270;99266;-83
2024/04/25 01:44:43;;;;;;;18.70;13.40;;;;;;;6.43;88.95;99455.56;105316;1272;99259;-83
2024/04/25 01:47:28;;;;;;;20.90;13.10;;;;;;;6.41;89.17;99453.09;105412;1270;99380;-83
2024/04/25 01:50:14;;;;;;;18.50;13.70;;;;;;;6.39;89.11;99452.13;105178;1270;99435;-83
2024/04/25 01:53:00;;;;;;;19.40;14.30;;;;;;;6.38;89.06;99453.75;105429;1271;103764;-82
2024/04/25 01:55:46;;;;;;;20.20;13.80;;;;;;;6.37;89.28;99454.68;105463;1272;100441;-82
2024/04/25 01:58:31;;;;;;;19.20;13.50;;;;;;;6.34;89.41;99459.11;105234;1271;99323;-82
2024/04/25 02:01:17;;;;;;;19.70;14.40;;;;;;;6.32;89.62;99459.98;105418;1273;100646;-83
2024/04/25 02:04:03;;;;;;;18.70;13.40;;;;;;;6.29;89.49;99457.98;105556;1272;99290;-83
2024/04/25 02:06:48;;;;;;;22.70;14.40;;;;;;;6.27;89.66;99458.21;105291;1270;104686;-83
2024/04/25 02:09:34;;;;;;;18.80;13.50;;;;;;;6.25;89.74;99461.83;105312;1268;99181;-82
2024/04/25 02:12:20;;;;;;;21.00;13.80;;;;;;;6.23;89.50;99461.92;105298;1273;99429;-83
2024/04/25 02:15:05;;;;;;;20.70;14.00;;;;;;;6.20;89.42;99463.98;105283;1269;99397;-84
2024/04/25 02:17:51;;;;;;;19.70;13.80;;;;;;;6.18;89.55;99463.42;105485;1273;100120;-84
2024/04/25 02:26:45;;;;;;;19.30;13.90;;;;;;;6.10;89.54;99471.67;105342;1273;99347;-84
2024/04/25 02:29:31;;;;;;;21.80;14.50;;;;;;;6.06;89.20;99469.27;105104;1271;99461;-83
2024/04/25 02:32:17;;;;;;;23.40;15.20;;;;;;;6.03;89.47;99474.15;105385;1273;101016;-83
2024/04/25 02:35:03;;;;;;;23.80;14.80;;;;;;;6.00;89.82;99477.79;105296;1270;102858;-83
2024/04/25 02:37:49;;;;;;;21.10;13.00;;;;;;;5.97;89.60;99474.33;105338;1273;100356;-83
2024/04/25 02:40:35;;;;;;;23.90;15.60;;;;;;;5.95;89.82;99477.80;105289;1273;99476;-83
2024/04/25 02:43:21;;;;;;;23.90;15.90;;;;;;;5.92;89.84;99477.56;105309;1271;99464;-83
2024/04/25 02:46:08;;;;;;;20.30;14.60;;;;;;;5.90;89.98;99480.51;105279;1270;97981;-83
2024/04/25 02:48:53;;;;;;;21.20;14.60;;;;;;;5.85;89.61;99480.49;105196;1273;103980;-83
2024/04/25 02:51:41;;;;;;;23.00;15.20;;;;;;;5.80;89.50;99483.98;105230;1271;99260;-82
2024/04/25 02:54:27;;;;;;;20.90;14.40;;;;;;;5.75;89.19;99485.31;105319;1270;99379;-84
2024/04/25 02:57:12;;;;;;;21.30;16.50;;;;;;;5.70;89.17;99484.45;105273;1273;99249;-83
2024/04/25 02:59:59;;;;;;;20.90;15.50;;;;;;;5.67;89.13;99485.42;105442;1272;99344;-84
2024/04/25 03:02:45;;;;;;;23.80;16.20;;;;;;;5.64;89.22;99488.29;105571;1273;103634;-84
2024/04/25 03:05:30;;;;;;;21.60;15.50;;;;;;;5.61;89.62;99487.76;105197;1273;100400;-83
2024/04/25 03:08:16;;;;;;;22.40;15.90;;;;;;;5.57;89.44;99486.92;105163;1271;99355;-82
2024/04/25 03:11:03;;;;;;;23.90;16.00;;;;;;;5.55;89.48;99489.48;105221;1273;99334;-83
2024/04/25 03:13:49;;;;;;;21.20;14.40;;;;;;;5.54;89.62;99492.48;105085;1274;99372;-83
2024/04/25 03:16:34;;;;;;;21.60;14.70;;;;;;;5.52;89.52;99493.39;105310;1269;102859;-83
2024/04/25 03:19:20;;;;;;;22.90;16.20;;;;;;;5.51;89.79;99494.80;105110;1274;99356;-82
2024/04/25 03:22:06;;;;;;;21.60;14.80;;;;;;;5.49;89.98;99496.92;105222;1273;99580;-83
2024/04/25 03:24:51;;;;;;;21.80;15.50;;;;;;;5.47;90.21;99499.77;105049;1276;99402;-83
2024/04/25 03:27:39;;;;;;;24.30;16.00;;;;;;;5.45;90.53;99501.64;105284;1270;99807;-83
2024/04/25 03:30:25;;;;;;;19.50;14.40;;;;;;;5.44;90.72;99504.02;104999;1271;103509;-82
2024/04/25 03:33:10;;;;;;;23.00;15.80;;;;;;;5.43;90.73;99501.21;105250;1270;99345;-82
2024/04/25 03:35:56;;;;;;;24.70;15.60;;;;;;;5.41;90.84;99503.58;105174;1273;99253;-83
2024/04/25 03:38:42;;;;;;;25.30;16.50;;;;;;;5.38;91.15;99509.59;105315;1270;99359;-83
2024/04/25 03:41:28;;;;;;;23.20;15.80;;;;;;;5.36;91.32;99513.98;105209;1275;99350;-84
2024/04/25 03:44:13;;;;;;;24.10;16.90;;;;;;;5.35;91.49;99519.04;105260;1273;102730;-83
2024/04/25 03:46:59;;;;;;;26.40;16.70;;;;;;;5.35;91.61;99519.08;105185;1273;99339;-83
2024/04/25 03:49:45;;;;;;;22.20;15.80;;;;;;;5.35;91.69;99516.83;105423;1273;99446;-84
2024/04/25 03:52:30;;;;;;;26.50;16.60;;;;;;;5.36;91.69;99517.08;105186;1273;99355;-83
2024/04/25 03:55:17;;;;;;;22.90;16.30;;;;;;;5.35;91.93;99514.45;105178;1273;99858;-82
2024/04/25 03:58:03;;;;;;;26.60;15.50;;;;;;;5.34;91.85;99516.32;105190;1270;103459;-82
2024/04/25 04:00:49;;;;;;;24.00;16.30;;;;;;;5.33;91.82;99520.41;105210;1273;100346;-85
2024/04/25 04:03:34;;;;;;;26.00;17.00;;;;;;;5.33;91.98;99524.17;105271;1273;99358;-85
2024/04/25 04:06:19;;;;;;;29.60;18.00;;;;;;;5.33;92.15;99529.27;105410;1273;99340;-83
2024/04/25 04:09:05;;;;;;;29.40;18.50;;;;;;;5.33;92.34;99532.67;105387;1273;101012;-84
2024/04/25 04:11:50;;;;;;;23.30;16.60;;;;;;;5.33;92.35;99532.59;105349;1273;102716;-84
2024/04/25 04:14:36;;;;;;;28.90;20.00;;;;;;;5.33;92.62;99538.27;105218;1271;100420;-84
2024/04/25 04:17:21;;;;;;;24.80;17.00;;;;;;;5.34;92.67;99540.86;105198;1273;99367;-84
2024/04/25 04:20:07;;;;;;;27.80;18.00;;;;;;;5.33;92.89;99542.55;105109;1270;102821;-84
2024/04/25 04:22:52;;;;;;;28.10;18.40;;;;;;;5.33;92.92;99544.19;105374;1273;99772;-82
2024/04/25 04:25:38;;;;;;;27.80;19.40;;;;;;;5.33;93.16;99541.69;105363;1273;104123;-84
2024/04/25 04:28:23;;;;;;;26.20;18.40;;;;;;;5.33;93.34;99545.51;105303;1270;99851;-83
2024/04/25 04:31:09;;;;;;;30.00;21.10;;;;;;;5.34;93.42;99545.23;104953;1274;99967;-84
2024/04/25 04:33:55;;;;;;;28.60;20.60;;;;;;;5.36;93.88;99551.23;105323;1272;99271;-83
2024/04/25 04:36:40;;;;;;;29.70;21.00;;;;;;;5.36;93.90;99555.23;105226;1270;99451;-84
2024/04/25 04:39:26;;;;;;;32.10;22.50;;;;;;;5.38;94.23;99556.33;105069;1274;102722;-83
2024/04/25 04:42:12;;;;;;;31.70;20.70;;;;;;;5.40;94.55;99557.95;105315;1273;99330;-82
2024/04/25 04:44:57;;;;;;;34.50;22.10;;;;;;;5.41;94.88;99562.43;105115;1273;99381;-83
2024/04/25 04:47:43;;;;;;;33.50;21.80;;;;;;;5.44;95.25;99566.23;105140;1271;99511;-83
2024/04/25 04:50:29;;;;;;;31.70;20.20;;;;;;;5.48;95.52;99565.20;105374;1271;99425;-84
2024/04/25 04:53:15;;;;;;;32.90;20.80;;;;;;;5.52;96.04;99566.45;105331;1270;104053;-83
2024/04/25 04:56:01;;;;;;;33.10;22.20;;;;;;;5.57;96.58;99564.02;105271;1270;99588;-83
2024/04/25 04:58:47;;;;;;;33.40;21.10;;;;;;;5.61;96.75;99561.00;105128;1269;99182;-84
2024/04/25 05:01:34;;;;;;;32.30;22.10;;;;;;;5.68;97.01;99558.83;105138;1271;101075;-84
2024/04/25 05:04:19;;;;;;;32.90;20.80;;;;;;;5.75;97.33;99562.73;105137;1273;101101;-83
2024/04/25 05:07:05;;;;;;;35.30;23.40;;;;;;;5.82;97.51;99564.92;105076;1273;102779;-82
2024/04/25 05:09:50;;;;;;;30.90;22.10;;;;;;;5.90;97.71;99570.71;105118;1273;99413;-84
2024/04/25 05:12:36;;;;;;;33.20;20.80;;;;;;;5.97;97.67;99571.63;105295;1273;99390;-83
2024/04/25 05:15:22;;;;;;;35.80;23.70;;;;;;;6.03;97.76;99572.05;105422;1270;99381;-84
2024/04/25 05:18:08;;;;;;;38.50;21.40;;;;;;;6.10;97.96;99579.03;105239;1271;99781;-83
2024/04/25 05:20:53;;;;;;;28.70;20.50;;;;;;;6.17;97.88;99578.52;105135;1273;102755;-83
2024/04/25 05:23:38;;;;;;;30.80;20.20;;;;;;;6.24;97.22;99577.35;105180;1271;99333;-83
2024/04/25 05:26:24;;;;;;;26.70;18.60;;;;;;;6.29;97.15;99576.43;105000;1273;99348;-83
2024/04/25 05:29:10;;;;;;;29.60;18.60;;;;;;;6.36;97.47;99578.36;105216;1273;100614;-82
2024/04/25 05:31:57;;;;;;;29.60;18.50;;;;;;;6.45;97.42;99578.90;105190;1272;99324;-82
2024/04/25 05:34:42;;;;;;;24.00;17.20;;;;;;;6.54;97.21;99583.48;105334;1271;102784;-83
2024/04/25 05:37:28;;;;;;;26.50;16.40;;;;;;;6.62;96.36;99583.89;105578;1271;99149;-81
2024/04/25 05:40:13;;;;;;;23.00;15.70;;;;;;;6.70;96.17;99588.98;105417;1270;99365;-83
2024/04/25 05:42:59;;;;;;;23.40;15.70;;;;;;;6.79;96.20;99592.41;105172;1273;99378;-82
2024/04/25 05:45:45;;;;;;;23.10;14.50;;;;;;;6.88;95.79;99591.96;105197;1273;99742;-82
2024/04/25 05:48:32;;;;;;;18.90;13.60;;;;;;;6.97;95.18;99595.63;105927;1276;103394;-80
2024/04/25 05:51:17;;;;;;;20.20;14.00;;;;;;;7.06;94.96;99599.08;105958;1272;99262;-80
2024/04/25 05:54:03;;;;;;;18.40;12.60;;;;;;;7.15;94.55;99600.94;105930;1284;99034;-80
2024/04/25 05:56:48;;;;;;;20.50;13.40;;;;;;;7.23;93.59;99602.58;105951;1273;99336;-80
2024/04/25 05:59:34;;;;;;;16.80;12.90;;;;;;;7.31;93.28;99601.72;105978;1273;99330;-80
2024/04/25 06:02:24;;;;;;;20.70;12.90;;;;;;;7.41;93.22;99602.96;106056;1270;102729;-80
2024/04/25 06:05:11;;;;;;;14.80;12.20;;;;;;;7.54;93.23;99604.02;106069;1270;100477;-79
2024/04/25 06:07:57;;;;;;;15.80;11.40;;;;;;;7.63;92.38;99605.25;105773;1270;99247;-80
2024/04/25 06:10:42;;;;;;;15.10;11.30;;;;;;;7.72;91.88;99611.44;105450;1273;100529;-83
2024/04/25 06:13:28;;;;;;;15.80;12.50;;;;;;;7.82;91.44;99609.55;105141;1273;99836;-82
2024/04/25 06:16:14;;;;;;;15.60;12.30;;;;;;;7.92;91.68;99611.27;105258;1274;106522;-82
2024/04/25 06:19:00;;;;;;;18.40;11.30;;;;;;;8.03;91.54;99609.83;105496;1271;99286;-82
2024/04/25 06:21:51;;;;;;;17.90;11.90;;;;;;;8.10;90.65;99611.73;105398;1271;100017;-81
2024/04/25 06:24:37;;;;;;;17.20;13.60;;;;;;;8.17;89.79;99614.95;105572;1273;99078;-81
2024/04/25 06:27:22;;;;;;;18.40;13.00;;;;;;;8.26;89.70;99616.87;105569;1276;98994;-80
2024/04/25 06:30:08;;;;;;;19.20;13.30;;;;;;;8.35;89.34;99620.10;105598;1273;103905;-84
2024/04/25 06:32:57;;;;;;;20.40;12.00;;;;;;;8.41;88.78;99626.29;105436;1270;100423;-82
2024/04/25 06:35:43;;;;;;;17.00;12.60;;;;;;;8.47;88.44;99630.25;105797;1269;100061;-82
2024/04/25 06:38:28;;;;;;;13.70;10.60;;;;;;;8.50;87.28;99630.95;105575;1275;99319;-80
2024/04/25 06:41:13;;;;;;;17.40;11.70;;;;;;;8.56;87.28;99636.84;105333;1271;99873;-79
2024/04/25 06:44:00;;;;;;;16.10;11.10;;;;;;;8.62;86.94;99641.30;104801;1272;102728;-78
2024/04/25 06:46:45;;;;;;;17.00;11.70;;;;;;;8.68;85.74;99640.19;105491;1272;100569;-81
2024/04/25 06:49:32;;;;;;;13.90;9.90;;;;;;;8.72;85.09;99643.73;105574;1274;99276;-81
2024/04/25 06:52:20;;;;;;;15.10;11.20;;;;;;;8.77;84.55;99643.61;105326;1267;99380;-81
2024/04/25 06:55:06;;;;;;;17.90;11.80;;;;;;;8.84;84.84;99644.54;105437;1271;99953;-80
2024/04/25 06:57:53;;;;;;;15.90;11.70;;;;;;;8.88;84.89;99648.59;105624;1270;103640;-82
2024/04/25 07:00:38;;;;;;;19.40;12.60;;;;;;;8.93;84.40;99651.05;105668;1273;99279;-80
2024/04/25 07:03:24;;;;;;;18.90;14.60;;;;;;;8.97;84.58;99652.23;105634;1273;99390;-81
2024/04/25 07:06:10;;;;;;;16.60;13.60;;;;;;;9.00;84.04;99656.98;105575;1270;99416;-80
2024/04/25 07:09:01;;;;;;;18.90;13.70;;;;;;;9.02;83.14;99657.64;105611;1273;99142;-82
2024/04/25 07:11:46;;;;;;;;;;;;;;;9.02;82.44;99661.89;105456;1277;103971;-80
2024/04/25 07:14:32;;;;;;;19.70;12.50;;;;;;;9.03;82.25;99658.38;105652;1273;100625;-81
2024/04/25 07:17:17;;;;;;;20.50;14.30;;;;;;;9.07;82.34;99663.84;105575;1273;99355;-82
2024/04/25 07:20:04;;;;;;;20.40;14.30;;;;;;;9.13;82.52;99665.30;105690;1270;99289;-81
2024/04/25 07:22:50;;;;;;;21.40;14.80;;;;;;;9.18;82.38;99665.89;105653;1269;99247;-80
2024/04/25 07:25:35;;;;;;;20.00;14.20;;;;;;;9.22;82.44;99667.19;105480;1273;103992;-81
2024/04/25 07:28:21;;;;;;;22.30;16.80;;;;;;;9.28;82.25;99673.28;105447;1270;99416;-80
2024/04/25 07:31:06;;;;;;;21.50;14.90;;;;;;;9.29;81.65;99673.04;104850;1273;99378;-81
2024/04/25 07:33:51;;;;;;;21.40;15.80;;;;;;;9.31;81.24;99675.42;105560;1273;99493;-82
2024/04/25 07:36:37;;;;;;;24.40;16.40;;;;;;;9.37;81.92;99676.89;105741;1272;99337;-81
2024/04/25 07:39:22;;;;;;;21.50;15.00;;;;;;;9.44;81.96;99679.95;105378;1270;103822;-81
2024/04/25 07:42:14;;;;;;;23.40;16.60;;;;;;;9.51;81.08;99685.34;105734;1272;99449;-81
2024/04/25 07:45:01;;;;;;;23.40;18.20;;;;;;;9.55;81.20;99688.36;105415;1270;99356;-82
2024/04/25 07:47:47;;;;;;;26.70;19.00;;;;;;;9.60;81.47;99690.67;105577;1272;99346;-80
2024/04/25 07:50:32;;;;;;;25.30;17.40;;;;;;;9.68;81.59;99695.87;105441;1273;99333;-80
2024/04/25 07:53:24;;;;;;;21.90;17.10;;;;;;;9.73;81.00;99698.56;105626;1273;104060;-82
2024/04/25 07:56:09;;;;;;;20.60;16.40;;;;;;;9.77;80.93;99693.09;105460;1273;99369;-80
2024/04/25 07:58:55;;;;;;;22.60;15.70;;;;;;;9.80;80.32;99699.11;105646;1270;100037;-82
2024/04/25 08:01:40;;;;;;;20.60;15.80;;;;;;;9.80;79.67;99701.26;105576;1270;99324;-80
2024/04/25 08:04:26;;;;;;;23.10;17.50;;;;;;;9.79;79.26;99703.67;105681;1270;99890;-80
2024/04/25 08:07:12;;;;;;;24.30;18.20;;;;;;;9.78;79.59;99701.33;105468;1270;102761;-81
2024/04/25 08:09:57;;;;;;;28.70;18.90;;;;;;;9.83;80.62;99703.88;105770;1270;99801;-81
2024/04/25 08:12:44;;;;;;;25.90;18.20;;;;;;;9.89;80.87;99701.80;105685;1270;99333;-83
2024/04/25 08:15:29;;;;;;;28.30;19.20;;;;;;;9.90;80.41;99702.45;105544;1270;99324;-81
2024/04/25 08:18:14;;;;;;;26.10;18.10;;;;;;;9.91;80.15;99703.48;105730;1269;99784;-80
2024/04/25 08:21:00;;;;;;;30.60;19.60;;;;;;;9.95;80.26;99703.70;105505;1270;103798;-80
2024/04/25 08:23:46;;;;;;;28.40;18.70;;;;;;;9.97;79.99;99705.27;105669;1273;100420;-80
2024/04/25 08:26:31;;;;;;;27.50;19.40;;;;;;;10.01;80.20;99700.99;105700;1273;99463;-82
2024/04/25 08:29:17;;;;;;;28.20;20.50;;;;;;;10.07;80.30;99701.66;105634;1270;99565;-80
2024/04/25 08:32:02;;;;;;;29.10;21.10;;;;;;;10.22;80.33;99702.71;105473;1273;99357;-81
2024/04/25 08:34:48;;;;;;;29.30;21.30;;;;;;;10.24;80.27;99701.36;105339;1283;102750;-82
2024/04/25 08:37:36;;;;;;;31.50;22.30;;;;;;;10.24;79.86;99703.33;105418;1270;99292;-81
2024/04/25 08:40:22;;;;;;;31.60;22.70;;;;;;;10.23;80.00;99704.48;105573;1270;97775;-80
2024/04/25 08:43:07;;;;;;;34.10;23.20;;;;;;;10.20;79.68;99710.83;105738;1272;99466;-80
2024/04/25 08:45:54;;;;;;;30.70;23.50;;;;;;;10.19;79.33;99713.17;105581;1269;99427;-82
2024/04/25 08:48:40;;;;;;;33.90;25.00;;;;;;;10.21;78.91;99715.93;105492;1270;103308;-82
2024/04/25 08:51:28;;;;;;;32.70;23.80;;;;;;;10.21;78.90;99715.65;105707;1270;99359;-83
2024/04/25 08:54:18;;;;;;;26.90;21.20;;;;;;;10.30;78.47;99711.02;105513;1270;99389;-81
2024/04/25 08:57:03;;;;;;;31.90;21.10;;;;;;;10.42;77.52;99713.86;105653;1273;99464;-81
2024/04/25 08:59:48;;;;;;;26.80;19.20;;;;;;;10.46;77.12;99713.98;105780;1284;99352;-79
2024/04/25 09:02:35;;;;;;;31.40;23.90;;;;;;;10.48;76.10;99715.80;105589;1272;103238;-80
2024/04/25 09:05:22;;;;;;;34.60;24.60;;;;;;;10.46;76.03;99717.82;105674;1269;100543;-81
2024/04/25 09:08:11;;;;;;;35.50;25.80;;;;;;;10.39;75.83;99717.62;105601;1270;99369;-80
2024/04/25 09:10:59;;;;;;;34.60;26.80;;;;;;;10.33;76.20;99724.91;105833;1270;99263;-80
2024/04/25 09:13:55;;;;;;;39.10;28.80;;;;;;;10.29;76.37;99725.85;105701;1269;99368;-82
2024/04/25 09:16:41;;;;;;;36.00;27.00;;;;;;;10.25;76.67;99724.94;105930;1270;102760;-81
2024/04/25 09:19:27;;;;;;;35.10;26.40;;;;;;;10.25;76.80;99726.73;105912;1272;100454;-81
2024/04/25 09:22:12;;;;;;;38.10;27.10;;;;;;;10.24;76.60;99728.27;105684;1270;100646;-82
2024/04/25 09:24:58;;;;;;;38.40;27.70;;;;;;;10.23;76.61;99730.09;105604;1272;99765;-81
2024/04/25 09:27:44;;;;;;;39.30;28.20;;;;;;;10.24;77.16;99731.95;105493;1275;99310;-81
2024/04/25 09:30:32;;;;;;;41.00;28.40;;;;;;;10.28;77.66;99730.80;105531;1270;104360;-81
2024/04/25 09:33:20;;;;;;;40.90;28.50;;;;;;;10.34;77.97;99729.31;105553;1269;99275;-81
2024/04/25 09:36:09;;;;;;;40.30;29.00;;;;;;;10.39;77.62;99730.46;105523;1273;99371;-81
2024/04/25 09:38:55;;;;;;;40.30;28.50;;;;;;;10.47;77.45;99735.13;105726;1269;99362;-81
2024/04/25 09:41:41;;;;;;;38.00;28.20;;;;;;;10.54;77.35;99732.96;105653;1270;99787;-81
2024/04/25 09:44:27;;;;;;;37.00;27.30;;;;;;;10.64;77.51;99731.44;105772;1270;103419;-80
2024/04/25 09:47:19;;;;;;;33.90;24.30;;;;;;;10.72;77.15;99730.84;105689;1271;99842;-81
2024/04/25 09:50:25;;;;;;;33.90;25.30;;;;;;;10.77;76.51;99729.77;105934;1267;99330;-81
2024/04/25 09:53:22;;;;;;;32.20;23.60;;;;;;;10.89;76.15;99727.72;105771;1269;99412;-81
2024/04/25 09:56:10;;;;;;;30.20;21.80;;;;;;;10.97;75.42;99729.84;105668;1269;99266;-81
2024/04/25 09:59:16;;;;;;;26.50;19.70;;;;;;;11.02;74.38;99732.02;105773;1270;104137;-81
2024/04/25 10:02:03;;;;;;;24.80;19.70;;;;;;;11.06;74.21;99728.38;105893;1270;99352;-81
2024/04/25 10:04:49;;;;;;;28.00;19.60;;;;;;;11.15;74.75;99729.95;105702;1270;99366;-81
2024/04/25 10:07:36;;;;;;;27.60;21.50;;;;;;;11.23;74.38;99728.90;105599;1272;99820;-81
2024/04/25 10:10:21;;;;;;;26.00;20.80;;;;;;;11.31;73.94;99733.44;105865;1273;99819;-83
2024/04/25 10:13:12;;;;;;;32.40;22.80;;;;;;;11.34;73.13;99728.80;105651;1270;102742;-81
2024/04/25 10:15:58;;;;;;;27.30;20.00;;;;;;;11.31;72.32;99730.21;105733;1270;99849;-82
2024/04/25 10:18:48;;;;;;;29.20;21.80;;;;;;;11.33;72.00;99728.28;105726;1269;99458;-82
2024/04/25 10:21:45;;;;;;;25.80;20.80;;;;;;;11.35;72.92;99725.91;105582;1273;99275;-81
2024/04/25 10:24:31;;;;;;;28.70;19.70;;;;;;;11.36;72.34;99724.88;105625;1272;99812;-81
2024/04/25 10:27:20;;;;;;;26.80;20.70;;;;;;;11.35;72.19;99729.91;105836;1269;102971;-81
2024/04/25 10:30:09;;;;;;;28.00;20.00;;;;;;;11.29;71.96;99731.27;105710;1270;99404;-81
2024/04/25 10:32:55;;;;;;;31.90;21.10;;;;;;;11.26;72.14;99735.03;105883;1269;99381;-83
2024/04/25 10:35:43;;;;;;;31.20;22.70;;;;;;;11.30;72.54;99739.91;105802;1270;99129;-82
2024/04/25 10:38:29;;;;;;;27.90;21.10;;;;;;;11.38;72.64;99739.64;105818;1269;99365;-82
2024/04/25 10:41:14;;;;;;;26.40;20.60;;;;;;;11.40;72.00;99735.38;105542;1271;104600;-81
2024/04/25 10:44:00;;;;;;;27.80;21.50;;;;;;;11.47;72.21;99733.17;105509;1270;99242;-81
2024/04/25 10:46:46;;;;;;;25.90;20.10;;;;;;;11.58;72.45;99729.36;105732;1273;99397;-80
2024/04/25 10:49:33;;;;;;;28.30;20.10;;;;;;;11.62;71.92;99735.00;105778;1272;99400;-81
2024/04/25 10:52:19;;;;;;;28.00;21.20;;;;;;;11.72;72.43;99737.07;105803;1270;99371;-81
2024/04/25 10:55:05;;;;;;;27.60;18.20;;;;;;;11.92;72.97;99735.38;105661;1273;102742;-81
2024/04/25 10:57:50;;;;;;;22.10;17.10;;;;;;;12.12;71.91;99731.70;105878;1270;99386;-81
2024/04/25 11:00:42;;;;;;;22.10;16.90;;;;;;;12.26;70.49;99731.22;105876;1269;97933;-83
2024/04/25 11:03:28;;;;;;;23.20;16.40;;;;;;;12.42;69.46;99733.08;105709;1270;99369;-82
2024/04/25 11:06:14;;;;;;;19.30;15.10;;;;;;;12.49;68.07;99731.14;105753;1270;99179;-82
2024/04/25 11:09:00;;;;;;;20.90;15.30;;;;;;;12.59;67.77;99731.59;105819;1270;103495;-81
2024/04/25 11:11:46;;;;;;;21.30;15.50;;;;;;;12.64;67.65;99732.30;105765;1271;99383;-81
2024/04/25 11:14:34;;;;;;;20.50;16.50;;;;;;;12.71;68.14;99732.89;105919;1270;97788;-81
2024/04/25 11:17:20;;;;;;;20.60;16.10;;;;;;;12.80;67.62;99734.71;105569;1273;99278;-81
2024/04/25 11:20:06;;;;;;;17.90;13.80;;;;;;;12.86;66.54;99726.66;105814;1274;100033;-82
2024/04/25 11:22:52;;;;;;;16.60;13.60;;;;;;;12.85;64.90;99725.05;105760;1270;102779;-81
2024/04/25 11:25:37;;;;;;;16.50;13.70;;;;;;;12.80;64.26;99725.98;105917;1270;99740;-81
2024/04/25 11:28:24;;;;;;;14.60;12.70;;;;;;;12.78;62.79;99720.10;105680;1270;99972;-82
2024/04/25 11:31:10;;;;;;;18.10;13.60;;;;;;;12.72;61.54;99714.03;105926;1270;99282;-81
2024/04/25 11:33:55;;;;;;;20.60;14.00;;;;;;;12.69;62.00;99707.61;105893;1270;99768;-80
2024/04/25 11:36:41;;;;;;;20.90;14.10;;;;;;;12.71;62.05;99704.63;105842;1272;102811;-82
2024/04/25 11:39:30;;;;;;;16.30;12.20;;;;;;;12.79;62.38;99702.39;105998;1270;99464;-82
2024/04/25 11:42:15;;;;;;;19.10;13.00;;;;;;;12.85;61.08;99700.69;105853;1270;99356;-83
2024/04/25 11:45:01;;;;;;;15.00;11.30;;;;;;;12.89;60.63;99700.38;106011;1271;97183;-82
2024/04/25 11:47:46;;;;;;;15.70;11.50;;;;;;;12.93;60.62;99705.35;106044;1272;100014;-82
2024/04/25 11:50:33;;;;;;;20.20;13.00;;;;;;;12.98;60.88;99710.62;106054;1270;102742;-80
2024/04/25 11:53:19;;;;;;;15.30;11.90;;;;;;;13.08;60.63;99708.66;105961;1270;100386;-81
2024/04/25 11:56:04;;;;;;;15.20;11.30;;;;;;;13.09;58.42;99710.69;105950;1270;99056;-80
2024/04/25 11:58:49;;;;;;;18.60;12.10;;;;;;;13.02;58.54;99710.08;106000;1271;99266;-80
2024/04/25 12:01:35;;;;;;;16.50;11.20;;;;;;;12.96;58.59;99710.02;105995;1269;99349;-80
2024/04/25 12:04:20;;;;;;;15.20;11.50;;;;;;;12.90;58.50;99712.52;105899;1269;102724;-83
2024/04/25 12:07:05;;;;;;;17.10;13.40;;;;;;;12.92;59.21;99709.91;105904;1270;99300;-81
2024/04/25 12:09:51;;;;;;;13.20;11.80;;;;;;;12.93;58.66;99714.05;105831;1267;99330;-81
2024/04/25 12:12:36;;;;;;;15.80;12.10;;;;;;;12.97;58.67;99708.89;105859;1273;99325;-81
2024/04/25 12:15:21;;;;;;;14.10;12.30;;;;;;;13.06;59.01;99701.77;105576;1269;98944;-82
2024/04/25 12:18:07;;;;;;;16.80;12.40;;;;;;;13.17;58.73;99701.17;105657;1271;102736;-82
2024/04/25 12:20:52;;;;;;;14.20;12.70;;;;;;;13.24;57.77;99702.56;105562;1270;99350;-78
2024/04/25 12:23:38;;;;;;;17.90;13.20;;;;;;;13.24;56.90;99703.39;104558;1270;99403;-77
2024/04/25 12:26:24;;;;;;;15.30;12.50;;;;;;;13.33;58.04;99699.64;105651;1273;99326;-84
2024/04/25 12:29:10;;;;;;;15.00;11.50;;;;;;;13.43;57.73;99696.45;105444;1270;99795;-87
2024/04/25 12:31:57;;;;;;;16.30;11.30;;;;;;;13.48;56.52;99697.13;105308;1270;103536;-84
2024/04/25 12:34:43;;;;;;;15.60;11.60;;;;;;;13.44;56.33;99697.71;105007;1274;100548;-85
2024/04/25 12:37:29;;;;;;;13.40;11.80;;;;;;;13.40;55.97;99702.61;105041;1272;99389;-83
2024/04/25 12:40:15;;;;;;;17.00;12.00;;;;;;;13.33;55.78;99702.45;104970;1270;99363;-84
2024/04/25 12:43:03;;;;;;;13.10;11.20;;;;;;;13.27;55.65;99704.64;105045;1273;99278;-83
2024/04/25 12:45:53;;;;;;;17.70;13.30;;;;;;;13.20;55.77;99707.09;104939;1273;103984;-84